createdAt,value
2023-01-04T00:01:16.079Z,99732.59
2023-01-04T00:03:44.081Z,99767.66
2023-01-04T00:06:14.039Z,99758.97
2023-01-04T00:08:41.456Z,99761.19
2023-01-04T00:11:20.689Z,99755.09
2023-01-04T00:13:49.676Z,99754.06
2023-01-04T00:16:21.962Z,99763.25
2023-01-04T00:18:50.436Z,99746.88
2023-01-04T00:21:22.798Z,99756.06
2023-01-04T00:23:51.806Z,99754.88
2023-01-04T00:26:25.707Z,99745.03
2023-01-04T00:28:56.880Z,99748.41
2023-01-04T00:31:24.890Z,99752.06
2023-01-04T00:33:55.970Z,99749.25
2023-01-04T00:36:23.729Z,99749.41
2023-01-04T00:39:10.974Z,99747.69
2023-01-04T00:42:00.596Z,99755.66
2023-01-04T00:44:28.963Z,99751.41
2023-01-04T00:46:56.469Z,99744.50
2023-01-04T00:49:23.899Z,99744.28
2023-01-04T00:51:51.264Z,99744.78
2023-01-04T00:54:19.054Z,99742.75
2023-01-04T00:56:45.977Z,99739.34
2023-01-04T00:59:14.638Z,99734.63
2023-01-04T01:01:42.394Z,99748.22
2023-01-04T01:04:14.493Z,99742.22
2023-01-04T01:06:42.217Z,99745.22
2023-01-04T01:09:09.640Z,99747.41
2023-01-04T01:11:38.631Z,99745.00
2023-01-04T01:14:06.317Z,99748.09
2023-01-04T01:19:23.316Z,99746.81
2023-01-04T01:21:50.903Z,99747.22
2023-01-04T01:24:19.770Z,99740.09
2023-01-04T01:26:46.916Z,99746.03
2023-01-04T01:29:14.002Z,99749.28
2023-01-04T01:31:41.776Z,99744.72
2023-01-04T01:34:09.318Z,99749.91
2023-01-04T01:36:36.916Z,99719.47
2023-01-04T01:39:04.994Z,99736.94
2023-01-04T01:41:34.239Z,99732.09
2023-01-04T01:44:42.162Z,99740.34
2023-01-04T01:47:24.664Z,99725.63
2023-01-04T01:50:01.205Z,99749.75
2023-01-04T01:52:32.942Z,99747.47
2023-01-04T01:55:04.562Z,99746.81
2023-01-04T01:57:37.491Z,99741.72
2023-01-04T02:00:09.044Z,99743.16
2023-01-04T02:02:36.700Z,99747.50
2023-01-04T02:05:03.964Z,99750.41
2023-01-04T02:07:33.436Z,99733.91
2023-01-04T02:10:18.893Z,99738.63
2023-01-04T02:13:05.536Z,99738.00
2023-01-04T02:16:03.114Z,99735.69
2023-01-04T02:22:39.266Z,99733.81
2023-01-04T02:26:13.905Z,99741.50
2023-01-04T02:29:02.504Z,99729.59
2023-01-04T02:31:48.612Z,99733.44
2023-01-04T02:34:35.597Z,99726.88
2023-01-04T02:37:14.170Z,99721.56
2023-01-04T02:39:50.262Z,99718.38
2023-01-04T02:42:49.170Z,99713.28
2023-01-04T02:45:20.748Z,99717.00
2023-01-04T02:48:06.372Z,99709.16
2023-01-04T02:50:37.176Z,99709.59
2023-01-04T02:53:19.088Z,99709.06
2023-01-04T02:55:55.873Z,99706.00
2023-01-04T02:58:36.576Z,99699.59
2023-01-04T03:01:51.692Z,99698.84
2023-01-04T03:04:54.564Z,99696.94
2023-01-04T03:07:32.193Z,99698.66
2023-01-04T03:10:19.157Z,99691.53
2023-01-04T03:12:55.001Z,99696.94
2023-01-04T03:15:27.009Z,99668.91
2023-01-04T03:17:58.506Z,99690.75
2023-01-04T03:20:30.204Z,99689.91
2023-01-04T03:23:24.799Z,99691.84
2023-01-04T03:26:38.125Z,99686.97
2023-01-04T03:29:49.868Z,99676.09
2023-01-04T03:33:05.178Z,99670.78
2023-01-04T03:36:12.422Z,99669.81
2023-01-04T03:39:15.502Z,99673.22
2023-01-04T03:42:10.531Z,99670.34
2023-01-04T03:45:10.403Z,99664.78
2023-01-04T03:48:19.118Z,99658.50
2023-01-04T03:50:51.899Z,99651.28
2023-01-04T03:53:20.482Z,99651.03
2023-01-04T03:55:49.076Z,99650.09
2023-01-04T03:58:16.351Z,99653.47
2023-01-04T04:00:43.628Z,99644.63
2023-01-04T04:03:10.761Z,99644.53
2023-01-04T04:06:02.627Z,99627.78
2023-01-04T04:08:29.716Z,99641.13
2023-01-04T04:11:19.712Z,99642.09
2023-01-04T04:13:48.354Z,99642.09
2023-01-04T04:16:15.784Z,99639.66
2023-01-04T04:18:42.999Z,99640.75
2023-01-04T04:21:10.045Z,99646.28
2023-01-04T04:23:37.022Z,99640.31
2023-01-04T04:26:03.997Z,99646.84
2023-01-04T04:28:31.090Z,99642.06
2023-01-04T04:30:58.092Z,99641.75
2023-01-04T04:33:25.052Z,99644.41
2023-01-04T04:35:53.871Z,99637.38
2023-01-04T04:38:21.451Z,99630.34
2023-01-04T04:41:07.120Z,99630.34
2023-01-04T04:43:35.036Z,99618.03
2023-01-04T04:46:02.404Z,99614.53
2023-01-04T04:48:29.410Z,99615.38
2023-01-04T04:50:56.419Z,99611.00
2023-01-04T04:53:23.436Z,99608.25
2023-01-04T04:55:54.602Z,99595.50
2023-01-04T04:58:21.999Z,99596.97
2023-01-04T05:00:49.749Z,99596.97
2023-01-04T05:03:16.895Z,99598.66
2023-01-04T05:05:44.906Z,99600.81
2023-01-04T05:08:11.897Z,99598.91
2023-01-04T05:10:39.143Z,99590.16
2023-01-04T05:13:09.279Z,99590.63
2023-01-04T05:15:39.763Z,99592.31
2023-01-04T05:18:09.081Z,99581.91
2023-01-04T05:20:36.357Z,99583.63
2023-01-04T05:23:03.464Z,99582.00
2023-01-04T05:25:30.407Z,99583.81
2023-01-04T05:27:57.408Z,99582.25
2023-01-04T05:30:43.243Z,99573.84
2023-01-04T05:33:10.812Z,99587.56
2023-01-04T05:35:37.869Z,99582.47
2023-01-04T05:38:05.059Z,99573.75
2023-01-04T05:40:32.433Z,99573.84
2023-01-04T05:42:59.405Z,99565.16
2023-01-04T05:45:27.183Z,99566.09
2023-01-04T05:47:54.828Z,99563.44
2023-01-04T05:50:23.919Z,99575.16
2023-01-04T05:52:51.344Z,99571.88
2023-01-04T05:55:18.844Z,99541.19
2023-01-04T05:57:46.235Z,99558.50
2023-01-04T06:00:14.594Z,99571.56
2023-01-04T06:02:42.802Z,99575.31
2023-01-04T06:05:11.712Z,99573.69
2023-01-04T06:07:39.966Z,99571.28
2023-01-04T06:10:12.607Z,99574.25
2023-01-04T06:12:40.502Z,99567.38
2023-01-04T06:15:08.359Z,99559.50
2023-01-04T06:17:36.047Z,99563.09
2023-01-04T06:20:03.720Z,99553.66
2023-01-04T06:22:30.762Z,99549.19
2023-01-04T06:24:58.328Z,99549.41
2023-01-04T06:27:25.686Z,99559.28
2023-01-04T06:29:53.314Z,99542.50
2023-01-04T06:32:20.227Z,99539.13
2023-01-04T06:34:47.128Z,99526.88
2023-01-04T06:37:14.069Z,99538.28
2023-01-04T06:39:41.067Z,99550.38
2023-01-04T06:42:27.901Z,99540.16
2023-01-04T06:44:54.943Z,99546.75
2023-01-04T06:47:21.871Z,99548.34
2023-01-04T06:49:49.079Z,99547.50
2023-01-04T06:52:16.020Z,99546.75
2023-01-04T06:54:42.966Z,99539.50
2023-01-04T06:57:09.851Z,99537.81
2023-01-04T06:59:36.828Z,99537.00
2023-01-04T07:02:04.163Z,99532.50
2023-01-04T07:04:31.199Z,99527.94
2023-01-04T07:06:58.237Z,99531.44
2023-01-04T07:09:25.173Z,99521.66
2023-01-04T07:11:52.136Z,99523.03
2023-01-04T07:14:19.206Z,99522.91
2023-01-04T07:16:46.176Z,99520.69
2023-01-04T07:19:13.089Z,99511.00
2023-01-04T07:21:40.020Z,99528.09
2023-01-04T07:24:07.012Z,99522.44
2023-01-04T07:26:34.964Z,99523.28
2023-01-04T07:29:17.522Z,99525.19
2023-01-04T07:31:49.367Z,99514.19
2023-01-04T07:34:17.560Z,99514.69
2023-01-04T07:36:45.202Z,99524.97
2023-01-04T07:39:12.878Z,99494.75
2023-01-04T07:41:40.917Z,99506.53
2023-01-04T07:44:09.156Z,99508.84
2023-01-04T07:46:36.992Z,99504.91
2023-01-04T07:49:04.678Z,99505.41
2023-01-04T07:51:32.138Z,99504.94
2023-01-04T07:53:59.400Z,99513.31
2023-01-04T07:56:26.389Z,99503.50
2023-01-04T07:58:57.277Z,99521.94
2023-01-04T08:01:25.625Z,99515.41
2023-01-04T08:03:53.863Z,99496.78
2023-01-04T08:06:21.944Z,99513.50
2023-01-04T08:08:49.565Z,99503.13
2023-01-04T08:11:18.649Z,99506.16
2023-01-04T08:13:45.946Z,99495.16
2023-01-04T08:16:21.181Z,99487.41
2023-01-04T08:18:49.420Z,99485.94
2023-01-04T08:21:16.414Z,99479.19
2023-01-04T08:23:43.396Z,99463.56
2023-01-04T08:26:13.148Z,99481.63
2023-01-04T08:28:40.971Z,99475.78
2023-01-04T08:31:12.439Z,99451.31
2023-01-04T08:33:40.924Z,99474.31
2023-01-04T08:36:25.948Z,99472.16
2023-01-04T08:38:59.996Z,99472.38
2023-01-04T08:44:14.757Z,99470.41
2023-01-04T08:46:41.898Z,99461.22
2023-01-04T08:49:08.920Z,99468.22
2023-01-04T08:51:36.070Z,99469.66
2023-01-04T08:54:03.742Z,99469.19
2023-01-04T08:56:34.865Z,99464.44
2023-01-04T08:59:02.272Z,99468.06
2023-01-04T09:01:30.453Z,99458.97
2023-01-04T09:03:58.351Z,99455.69
2023-01-04T09:06:25.350Z,99445.16
2023-01-04T09:08:53.957Z,99454.44
2023-01-04T09:11:22.670Z,99449.41
2023-01-04T09:13:54.176Z,99440.91
2023-01-04T09:16:21.247Z,99441.94
2023-01-04T09:18:48.197Z,99443.00
2023-01-04T09:21:19.639Z,99431.09
2023-01-04T09:23:48.249Z,99436.03
2023-01-04T09:26:26.166Z,99431.03
2023-01-04T09:28:55.251Z,99430.13
2023-01-04T09:31:25.531Z,99420.28
2023-01-04T09:36:39.923Z,99411.41
2023-01-04T09:39:07.196Z,99403.56
2023-01-04T09:41:59.150Z,99405.44
2023-01-04T09:48:00.381Z,99378.78
2023-01-04T09:50:54.861Z,99379.53
2023-01-04T09:53:25.106Z,99369.13
2023-01-04T09:55:54.896Z,99353.53
2023-01-04T09:58:27.440Z,99345.13
2023-01-04T10:01:04.476Z,99346.09
2023-01-04T10:03:39.849Z,99341.16
2023-01-04T10:06:12.145Z,99336.25
2023-01-04T10:08:42.356Z,99323.72
2023-01-04T10:11:38.259Z,99321.72
2023-01-04T10:14:15.062Z,99307.63
2023-01-04T10:17:12.195Z,99313.41
2023-01-04T10:23:06.219Z,99294.09
2023-01-04T10:26:01.416Z,99300.25
2023-01-04T10:28:54.317Z,99299.66
2023-01-04T10:31:43.446Z,99297.22
2023-01-04T10:34:25.434Z,99280.72
2023-01-04T10:37:00.409Z,99270.84
2023-01-04T10:39:33.370Z,99283.34
2023-01-04T10:42:20.005Z,99271.44
2023-01-04T10:44:52.739Z,99262.06
2023-01-04T10:47:46.126Z,99261.41
2023-01-04T10:50:34.592Z,99249.91
2023-01-04T10:53:20.240Z,99241.03
2023-01-04T10:56:23.568Z,99211.06
2023-01-04T10:59:01.146Z,99216.72
2023-01-04T11:01:40.208Z,99226.91
2023-01-04T11:04:37.627Z,99219.38
2023-01-04T11:07:15.970Z,99208.31
2023-01-04T11:09:58.514Z,99196.72
2023-01-04T11:12:26.831Z,99197.19
2023-01-04T11:14:55.246Z,99187.91
2023-01-04T11:17:24.771Z,99184.59
2023-01-04T11:19:51.813Z,99181.44
2023-01-04T11:22:37.163Z,99182.66
2023-01-04T11:28:03.459Z,99171.06
2023-01-04T11:30:45.874Z,99158.47
2023-01-04T11:33:21.865Z,99150.72
2023-01-04T11:35:51.859Z,99149.72
2023-01-04T11:38:24.534Z,99144.34
2023-01-04T11:41:03.093Z,99134.66
2023-01-04T11:43:32.859Z,99127.25
2023-01-04T11:46:21.350Z,99111.13
2023-01-04T11:48:48.989Z,99095.13
2023-01-04T11:51:19.483Z,99084.72
2023-01-04T11:53:56.488Z,99088.13
2023-01-04T11:56:26.325Z,99094.66
2023-01-04T11:59:24.569Z,99079.00
2023-01-04T12:02:10.241Z,99081.56
2023-01-04T12:04:37.298Z,99071.13
2023-01-04T12:07:15.746Z,99058.19
2023-01-04T12:09:42.771Z,99092.31
2023-01-04T12:12:15.996Z,99081.22
2023-01-04T12:14:53.913Z,99051.66
2023-01-04T12:17:30.793Z,99079.22
2023-01-04T12:20:18.806Z,99064.28
2023-01-04T12:22:46.473Z,99033.53
2023-01-04T12:25:38.748Z,99047.66
2023-01-04T12:28:07.378Z,99042.59
2023-01-04T12:30:45.956Z,99025.13
2023-01-04T12:33:31.056Z,99030.50
2023-01-04T12:36:08.263Z,99030.34
2023-01-04T12:39:12.704Z,99031.50
2023-01-04T12:41:40.600Z,99024.94
2023-01-04T12:44:52.135Z,99014.38
2023-01-04T12:47:37.739Z,98996.22
2023-01-04T12:50:14.781Z,98999.94
2023-01-04T12:53:02.371Z,98993.53
2023-01-04T12:55:32.033Z,98979.97
2023-01-04T12:57:59.512Z,98964.00
2023-01-04T13:00:52.872Z,98964.19
2023-01-04T13:03:22.115Z,98961.00
2023-01-04T13:05:57.509Z,98957.81
2023-01-04T13:08:25.075Z,98950.56
2023-01-04T13:10:56.510Z,98942.34
2023-01-04T13:13:29.350Z,98939.16
2023-01-04T13:15:59.121Z,98930.44
2023-01-04T13:18:47.823Z,98918.16
2023-01-04T13:21:38.502Z,98923.72
2023-01-04T13:24:19.199Z,98915.28
2023-01-04T13:26:48.555Z,98901.34
2023-01-04T13:29:26.535Z,98894.28
2023-01-04T13:32:24.382Z,98899.50
2023-01-04T13:35:15.728Z,98886.88
2023-01-04T13:37:51.214Z,98871.59
2023-01-04T13:40:30.676Z,98873.75
2023-01-04T13:43:15.677Z,98880.97
2023-01-04T13:46:05.527Z,98883.00
2023-01-04T13:48:37.946Z,98869.72
2023-01-04T13:51:24.052Z,98862.19
2023-01-04T13:53:59.081Z,98852.63
2023-01-04T13:56:30.658Z,98865.06
2023-01-04T13:58:58.084Z,98851.41
2023-01-04T14:01:25.052Z,98838.19
2023-01-04T14:03:55.030Z,98846.41
2023-01-04T14:06:27.864Z,98828.94
2023-01-04T14:09:09.926Z,98822.88
2023-01-04T14:12:02.098Z,98818.50
2023-01-04T14:14:49.135Z,98813.34
2023-01-04T14:17:19.580Z,98801.91
2023-01-04T14:19:48.049Z,98803.59
2023-01-04T14:22:21.310Z,98806.13
2023-01-04T14:27:38.263Z,98805.78
2023-01-04T14:30:20.079Z,98807.59
2023-01-04T14:33:02.189Z,98803.06
2023-01-04T14:35:30.637Z,98797.22
2023-01-04T14:38:06.654Z,98803.59
2023-01-04T14:40:35.845Z,98795.00
2023-01-04T14:43:02.843Z,98789.16
2023-01-04T14:45:29.783Z,98796.34
2023-01-04T14:47:56.697Z,98791.44
2023-01-04T14:50:23.645Z,98778.00
2023-01-04T14:52:55.631Z,98774.16
2023-01-04T14:55:24.976Z,98761.19
2023-01-04T14:57:51.919Z,98764.72
2023-01-04T15:00:19.808Z,98761.03
2023-01-04T15:02:50.797Z,98764.19
2023-01-04T15:05:20.705Z,98766.69
2023-01-04T15:07:48.378Z,98770.22
2023-01-04T15:10:29.560Z,98763.66
2023-01-04T15:13:03.854Z,98766.34
2023-01-04T15:15:33.701Z,98752.91
2023-01-04T15:18:00.650Z,98748.22
2023-01-04T15:20:27.665Z,98741.16
2023-01-04T15:22:54.676Z,98733.28
2023-01-04T15:25:24.310Z,98731.59
2023-01-04T15:27:51.838Z,98731.25
2023-01-04T15:30:18.977Z,98720.53
2023-01-04T15:32:45.881Z,98715.22
2023-01-04T15:35:17.190Z,98707.00
2023-01-04T15:37:45.347Z,98705.66
2023-01-04T15:40:15.214Z,98708.72
2023-01-04T15:43:00.778Z,98718.97
2023-01-04T15:45:39.265Z,98705.41
2023-01-04T15:48:08.494Z,98705.28
2023-01-04T15:50:37.838Z,98698.56
2023-01-04T15:53:06.574Z,98684.00
2023-01-04T15:55:36.711Z,98687.34
2023-01-04T15:58:05.164Z,98676.94
2023-01-04T16:00:33.205Z,98665.53
2023-01-04T16:03:00.220Z,98664.88
2023-01-04T16:05:27.201Z,98645.56
2023-01-04T16:07:54.063Z,98637.75
2023-01-04T16:10:21.229Z,98630.38
2023-01-04T16:12:54.696Z,98631.25
2023-01-04T16:15:23.972Z,98650.84
2023-01-04T16:17:51.033Z,98646.63
2023-01-04T16:20:18.817Z,98650.84
2023-01-04T16:22:46.114Z,98643.81
2023-01-04T16:25:13.503Z,98641.28
2023-01-04T16:27:40.893Z,98628.03
2023-01-04T16:30:12.602Z,98635.97
2023-01-04T16:32:43.734Z,98643.84
2023-01-04T16:35:11.352Z,98637.13
2023-01-04T16:37:39.141Z,98631.94
2023-01-04T16:40:08.230Z,98626.22
2023-01-04T16:42:37.082Z,98602.75
2023-01-04T16:45:04.417Z,98592.84
2023-01-04T16:47:39.425Z,98583.31
2023-01-04T16:50:07.410Z,98578.31
2023-01-04T16:52:34.399Z,98581.16
2023-01-04T16:55:01.341Z,98573.09
2023-01-04T16:57:28.290Z,98575.41
2023-01-04T16:59:55.263Z,98574.06
2023-01-04T17:02:24.721Z,98575.09
2023-01-04T17:04:57.226Z,98577.94
2023-01-04T17:07:24.226Z,98575.41
2023-01-04T17:09:51.220Z,98564.34
2023-01-04T17:12:46.143Z,98568.06
2023-01-04T17:17:53.005Z,98547.25
2023-01-04T17:20:19.905Z,98554.31
2023-01-04T17:22:46.827Z,98544.59
2023-01-04T17:25:16.051Z,98528.81
2023-01-04T17:27:44.451Z,98532.13
2023-01-04T17:30:11.882Z,98518.06
2023-01-04T17:32:38.850Z,98528.31
2023-01-04T17:35:05.898Z,98504.00
2023-01-04T17:37:33.178Z,98512.56
2023-01-04T17:40:00.148Z,98510.06
2023-01-04T17:42:27.120Z,98513.91
2023-01-04T17:44:54.078Z,98514.91
2023-01-04T17:47:21.028Z,98499.69
2023-01-04T17:49:47.912Z,98522.75
2023-01-04T17:52:21.076Z,98512.03
2023-01-04T17:54:51.443Z,98507.50
2023-01-04T17:57:18.374Z,98499.28
2023-01-04T17:59:45.275Z,98506.34
2023-01-04T18:02:12.392Z,98482.03
2023-01-04T18:04:42.199Z,98478.34
2023-01-04T18:07:09.099Z,98477.50
2023-01-04T18:09:36.037Z,98474.66
2023-01-04T18:12:02.975Z,98468.56
2023-01-04T18:14:29.851Z,98470.41
2023-01-04T18:16:57.753Z,98453.03
2023-01-04T18:19:27.794Z,98445.59
2023-01-04T18:21:55.085Z,98444.53
2023-01-04T18:24:39.048Z,98431.91
2023-01-04T18:27:25.474Z,98431.56
2023-01-04T18:29:55.139Z,98414.69
2023-01-04T18:32:23.330Z,98414.38
2023-01-04T18:34:50.614Z,98402.78
2023-01-04T18:37:19.068Z,98410.75
2023-01-04T18:39:47.112Z,98425.50
2023-01-04T18:42:14.183Z,98411.69
2023-01-04T18:44:48.028Z,98413.22
2023-01-04T18:47:18.080Z,98418.03
2023-01-04T18:49:45.032Z,98422.19
2023-01-04T18:52:12.042Z,98404.06
2023-01-04T18:54:39.689Z,98403.03
2023-01-04T18:57:06.677Z,98399.16
2023-01-04T18:59:33.656Z,98407.84
2023-01-04T19:02:03.877Z,98400.28
2023-01-04T19:04:34.389Z,98404.44
2023-01-04T19:07:02.096Z,98391.84
2023-01-04T19:09:29.470Z,98404.91
2023-01-04T19:11:56.344Z,98407.88
2023-01-04T19:14:23.265Z,98397.78
2023-01-04T19:16:50.252Z,98394.72
2023-01-04T19:19:17.243Z,98387.97
2023-01-04T19:21:44.186Z,98373.88
2023-01-04T19:24:11.178Z,98372.84
2023-01-04T19:26:38.795Z,98376.66
2023-01-04T19:29:07.619Z,98355.81
2023-01-04T19:31:35.363Z,98349.78
2023-01-04T19:34:02.815Z,98342.53
2023-01-04T19:36:29.848Z,98367.94
2023-01-04T19:38:57.538Z,98361.72
2023-01-04T19:41:33.427Z,98367.75
2023-01-04T19:44:06.186Z,98361.56
2023-01-04T19:46:33.344Z,98358.47
2023-01-04T19:49:00.355Z,98342.81
2023-01-04T19:51:30.161Z,98331.03
2023-01-04T19:53:57.097Z,98335.22
2023-01-04T19:56:24.065Z,98317.41
2023-01-04T19:58:51.039Z,98320.53
2023-01-04T20:01:23.299Z,98315.81
2023-01-04T20:03:50.593Z,98310.00
2023-01-04T20:06:18.147Z,98308.59
2023-01-04T20:08:45.369Z,98307.38
2023-01-04T20:11:13.052Z,98306.19
2023-01-04T20:13:40.637Z,98315.72
2023-01-04T20:16:08.132Z,98308.66
2023-01-04T20:18:36.885Z,98301.25
2023-01-04T20:21:13.020Z,98303.75
2023-01-04T20:23:40.886Z,98325.72
2023-01-04T20:26:12.797Z,98328.69
2023-01-04T20:28:42.098Z,98322.91
2023-01-04T20:31:11.506Z,98313.34
2023-01-04T20:33:38.969Z,98305.50
2023-01-04T20:36:12.553Z,98285.25
2023-01-04T20:38:41.674Z,98292.31
2023-01-04T20:41:12.429Z,98295.25
2023-01-04T20:43:39.801Z,98294.03
2023-01-04T20:46:12.972Z,98286.81
2023-01-04T20:48:42.999Z,98290.13
2023-01-04T20:51:18.624Z,98277.50
2023-01-04T20:53:46.567Z,98276.94
2023-01-04T20:56:15.786Z,98271.19
2023-01-04T20:58:46.691Z,98273.66
2023-01-04T21:01:14.660Z,98269.94
2023-01-04T21:03:42.340Z,98260.69
2023-01-04T21:06:12.136Z,98262.13
2023-01-04T21:08:41.499Z,98269.19
2023-01-04T21:11:10.013Z,98253.66
2023-01-04T21:13:41.699Z,98251.63
2023-01-04T21:16:09.875Z,98242.91
2023-01-04T21:18:38.374Z,98243.72
2023-01-04T21:21:10.051Z,98231.50
2023-01-04T21:23:38.425Z,98228.81
2023-01-04T21:26:07.202Z,98236.22
2023-01-04T21:28:34.640Z,98227.31
2023-01-04T21:31:01.601Z,98224.63
2023-01-04T21:33:28.610Z,98211.75
2023-01-04T21:35:55.550Z,98220.31
2023-01-04T21:38:22.464Z,98216.78
2023-01-04T21:40:49.364Z,98225.88
2023-01-04T21:43:17.756Z,98223.34
2023-01-04T21:45:45.063Z,98224.84
2023-01-04T21:48:11.995Z,98220.47
2023-01-04T21:50:39.033Z,98222.16
2023-01-04T21:53:05.941Z,98214.91
2023-01-04T21:55:35.152Z,98196.88
2023-01-04T21:58:05.314Z,98190.22
2023-01-04T22:00:33.250Z,98196.88
2023-01-04T22:03:00.267Z,98174.13
2023-01-04T22:05:27.270Z,98170.44
2023-01-04T22:07:54.213Z,98168.94
2023-01-04T22:10:22.431Z,98185.88
2023-01-04T22:12:50.706Z,98193.50
2023-01-04T22:15:17.682Z,98176.50
2023-01-04T22:17:46.436Z,98168.00
2023-01-04T22:20:13.391Z,98167.56
2023-01-04T22:22:40.295Z,98170.25
2023-01-04T22:25:07.498Z,98160.72
2023-01-04T22:27:34.759Z,98160.72
2023-01-04T22:30:02.308Z,98156.97
2023-01-04T22:32:29.268Z,98168.00
2023-01-04T22:34:56.295Z,98137.53
2023-01-04T22:37:23.385Z,98178.41
2023-01-04T22:39:50.331Z,98171.13
2023-01-04T22:42:18.528Z,98176.50
2023-01-04T22:44:45.456Z,98139.88
2023-01-04T22:47:12.338Z,98156.28
2023-01-04T22:49:39.213Z,98155.88
2023-01-04T22:52:06.371Z,98145.50
2023-01-04T22:54:33.428Z,98140.56
2023-01-04T22:57:00.815Z,98144.94
2023-01-04T22:59:27.815Z,98131.84
2023-01-04T23:01:54.752Z,98128.78
2023-01-04T23:04:23.042Z,98126.47
2023-01-04T23:06:51.506Z,98121.28
2023-01-04T23:09:19.215Z,98120.66
2023-01-04T23:11:46.325Z,98124.00
2023-01-04T23:14:16.397Z,98106.06
2023-01-04T23:16:46.611Z,98127.28
2023-01-04T23:19:14.392Z,98116.53
2023-01-04T23:21:41.596Z,98112.16
2023-01-04T23:24:13.549Z,98097.50
2023-01-04T23:26:41.661Z,98101.16
2023-01-04T23:29:08.694Z,98086.31
2023-01-04T23:31:35.655Z,98082.56
2023-01-04T23:34:04.887Z,98085.47
2023-01-04T23:36:35.918Z,98081.09
2023-01-04T23:39:06.946Z,98077.59
2023-01-04T23:41:47.037Z,98061.63
2023-01-04T23:46:54.324Z,98055.63
2023-01-04T23:49:22.189Z,98052.09
2023-01-04T23:51:49.802Z,98044.84
2023-01-04T23:54:17.166Z,98017.69
2023-01-04T23:56:44.279Z,98033.25
2023-01-04T23:59:11.926Z,98024.16
